createdAt,value
2023-07-24T00:00:04.737Z,98730.06
2023-07-24T00:00:16.733Z,98735.34
2023-07-24T00:00:28.777Z,98733.69
2023-07-24T00:00:41.567Z,98731.06
2023-07-24T00:00:53.629Z,98730.06
2023-07-24T00:01:05.765Z,98730.06
2023-07-24T00:01:19.051Z,98735.34
2023-07-24T00:01:31.108Z,98737.03
2023-07-24T00:01:43.334Z,98727.41
2023-07-24T00:01:55.326Z,98726.72
2023-07-24T00:02:07.588Z,98733.69
2023-07-24T00:02:19.547Z,98723.94
2023-07-24T00:02:31.603Z,98725.47
2023-07-24T00:02:43.633Z,98728.13
2023-07-24T00:02:57.114Z,98727.16
2023-07-24T00:03:09.332Z,98728.81
2023-07-24T00:03:21.417Z,98728.13
2023-07-24T00:03:33.448Z,98724.50
2023-07-24T00:03:46.239Z,98724.78
2023-07-24T00:03:59.895Z,98719.50
2023-07-24T00:04:11.867Z,98724.78
2023-07-24T00:04:23.847Z,98721.19
2023-07-24T00:04:35.926Z,98722.81
2023-07-24T00:04:48.275Z,98725.47
2023-07-24T00:05:00.268Z,98724.78
2023-07-24T00:05:12.394Z,98716.16
2023-07-24T00:05:24.350Z,98717.84
2023-07-24T00:05:36.400Z,98717.00
2023-07-24T00:05:48.438Z,98716.16
2023-07-24T00:06:00.623Z,98710.06
2023-07-24T00:06:12.761Z,98709.22
2023-07-24T00:06:24.881Z,98713.38
2023-07-24T00:06:36.968Z,98717.00
2023-07-24T00:06:48.976Z,98714.38
2023-07-24T00:07:01.817Z,98710.06
2023-07-24T00:07:13.788Z,98715.19
2023-07-24T00:07:26.150Z,98716.84
2023-07-24T00:07:38.154Z,98714.50
2023-07-24T00:07:50.134Z,98703.94
2023-07-24T00:08:03.050Z,98714.78
2023-07-24T00:08:14.999Z,98714.78
2023-07-24T00:08:27.289Z,98706.16
2023-07-24T00:08:39.529Z,98709.66
2023-07-24T00:08:51.553Z,98710.34
2023-07-24T00:09:03.574Z,98708.09
2023-07-24T00:09:15.967Z,98709.91
2023-07-24T00:09:28.038Z,98710.03
2023-07-24T00:09:39.990Z,98709.09
2023-07-24T00:09:52.026Z,98711.72
2023-07-24T00:10:04.722Z,98706.44
2023-07-24T00:10:16.734Z,98707.41
2023-07-24T00:10:28.716Z,98709.78
2023-07-24T00:10:40.731Z,98707.97
2023-07-24T00:10:52.731Z,98709.78
2023-07-24T00:11:08.622Z,98705.47
2023-07-24T00:11:20.603Z,98708.78
2023-07-24T00:11:32.931Z,98711.44
2023-07-24T00:11:44.861Z,98708.78
2023-07-24T00:11:56.871Z,98711.44
2023-07-24T00:12:09.085Z,98705.19
2023-07-24T00:12:21.098Z,98705.88
2023-07-24T00:12:33.140Z,98707.41
2023-07-24T00:12:45.134Z,98702.00
2023-07-24T00:12:57.090Z,98701.00
2023-07-24T00:13:09.758Z,98702.69
2023-07-24T00:13:21.788Z,98699.22
2023-07-24T00:13:33.759Z,98698.34
2023-07-24T00:13:46.021Z,98701.16
2023-07-24T00:13:58.030Z,98707.53
2023-07-24T00:14:10.030Z,98700.59
2023-07-24T00:14:21.997Z,98701.56
2023-07-24T00:14:33.974Z,98704.19
2023-07-24T00:14:45.923Z,98698.66
2023-07-24T00:14:57.863Z,98705.19
2023-07-24T00:15:10.216Z,98700.34
2023-07-24T00:15:22.381Z,98695.06
2023-07-24T00:15:34.431Z,98699.47
2023-07-24T00:15:46.384Z,98700.34
2023-07-24T00:15:58.633Z,98700.34
2023-07-24T00:16:11.275Z,98701.41
2023-07-24T00:16:23.279Z,98695.31
2023-07-24T00:16:35.298Z,98708.81
2023-07-24T00:16:47.267Z,98705.06
2023-07-24T00:16:59.304Z,98707.56
2023-07-24T00:17:11.325Z,98702.28
2023-07-24T00:17:23.465Z,98690.84
2023-07-24T00:17:35.567Z,98707.56
2023-07-24T00:17:47.545Z,98705.88
2023-07-24T00:17:59.694Z,98701.41
2023-07-24T00:18:11.749Z,98692.66
2023-07-24T00:18:23.861Z,98707.56
2023-07-24T00:18:35.962Z,98709.22
2023-07-24T00:18:47.939Z,98697.00
2023-07-24T00:18:59.956Z,98711.84
2023-07-24T00:19:11.980Z,98705.59
2023-07-24T00:19:24.024Z,98698.66
2023-07-24T00:19:36.106Z,98706.03
2023-07-24T00:19:48.134Z,98702.97
2023-07-24T00:20:00.188Z,98714.63
2023-07-24T00:20:12.739Z,98699.88
2023-07-24T00:20:25.738Z,98709.47
2023-07-24T00:20:37.691Z,98700.56
2023-07-24T00:20:49.659Z,98702.25
2023-07-24T00:21:01.658Z,98702.53
2023-07-24T00:21:14.521Z,98699.63
2023-07-24T00:21:26.521Z,98702.13
2023-07-24T00:21:38.468Z,98701.97
2023-07-24T00:21:50.414Z,98696.69
2023-07-24T00:22:02.718Z,98698.38
2023-07-24T00:22:14.660Z,98694.78
2023-07-24T00:22:26.604Z,98697.25
2023-07-24T00:22:38.637Z,98698.13
2023-07-24T00:22:50.739Z,98698.13
2023-07-24T00:23:02.706Z,98696.44
2023-07-24T00:23:14.716Z,98689.19
2023-07-24T00:23:26.789Z,98687.38
2023-07-24T00:23:38.861Z,98692.81
2023-07-24T00:23:50.809Z,98696.16
2023-07-24T00:24:02.779Z,98692.81
2023-07-24T00:24:14.791Z,98694.78
2023-07-24T00:24:26.834Z,98689.50
2023-07-24T00:24:38.831Z,98688.38
2023-07-24T00:24:50.993Z,98694.47
2023-07-24T00:25:03.069Z,98696.16
2023-07-24T00:25:15.000Z,98688.94
2023-07-24T00:25:27.077Z,98687.00
2023-07-24T00:25:39.002Z,98685.31
2023-07-24T00:25:51.023Z,98684.34
2023-07-24T00:26:03.026Z,98688.63
2023-07-24T00:26:15.019Z,98689.47
2023-07-24T00:26:27.267Z,98687.00
2023-07-24T00:26:39.380Z,98684.47
2023-07-24T00:26:51.314Z,98682.66
2023-07-24T00:27:03.919Z,98683.66
2023-07-24T00:27:15.853Z,98681.00
2023-07-24T00:27:28.655Z,98689.19
2023-07-24T00:27:40.650Z,98687.53
2023-07-24T00:27:52.800Z,98688.38
2023-07-24T00:28:04.803Z,98685.59
2023-07-24T00:28:16.804Z,98688.25
2023-07-24T00:28:28.790Z,98679.31
2023-07-24T00:28:41.129Z,98683.66
2023-07-24T00:28:53.091Z,98686.13
2023-07-24T00:29:05.046Z,98687.81
2023-07-24T00:29:17.075Z,98687.00
2023-07-24T00:29:29.027Z,98690.59
2023-07-24T00:29:41.048Z,98681.72
2023-07-24T00:29:53.056Z,98693.91
2023-07-24T00:30:05.603Z,98687.00
2023-07-24T00:30:17.576Z,98684.34
2023-07-24T00:30:29.629Z,98688.63
2023-07-24T00:30:41.607Z,98681.53
2023-07-24T00:30:53.611Z,98686.81
2023-07-24T00:31:05.611Z,98684.75
2023-07-24T00:31:17.588Z,98691.72
2023-07-24T00:31:29.561Z,98683.91
2023-07-24T00:31:41.509Z,98686.44
2023-07-24T00:31:53.531Z,98685.56
2023-07-24T00:32:06.057Z,98688.09
2023-07-24T00:32:18.016Z,98684.47
2023-07-24T00:32:30.053Z,98683.63
2023-07-24T00:32:42.201Z,98685.56
2023-07-24T00:32:54.311Z,98684.63
2023-07-24T00:33:06.321Z,98684.75
2023-07-24T00:33:18.312Z,98680.28
2023-07-24T00:33:30.320Z,98684.06
2023-07-24T00:33:42.298Z,98681.72
2023-07-24T00:33:54.267Z,98684.75
2023-07-24T00:34:06.250Z,98687.25
2023-07-24T00:34:18.276Z,98678.63
2023-07-24T00:34:30.225Z,98688.38
2023-07-24T00:34:42.240Z,98684.34
2023-07-24T00:34:54.260Z,98685.31
2023-07-24T00:35:06.940Z,98682.66
2023-07-24T00:35:18.939Z,98679.75
2023-07-24T00:35:30.996Z,98684.22
2023-07-24T00:35:42.956Z,98684.22
2023-07-24T00:35:58.664Z,98679.88
2023-07-24T00:36:10.642Z,98683.34
2023-07-24T00:36:22.626Z,98686.84
2023-07-24T00:36:34.608Z,98681.56
2023-07-24T00:36:46.599Z,98686.97
2023-07-24T00:36:58.561Z,98682.66
2023-07-24T00:37:10.613Z,98685.16
2023-07-24T00:37:22.653Z,98689.50
2023-07-24T00:37:34.692Z,98684.22
2023-07-24T00:37:46.638Z,98684.91
2023-07-24T00:37:58.589Z,98687.53
2023-07-24T00:38:10.552Z,98680.31
2023-07-24T00:38:22.530Z,98690.88
2023-07-24T00:38:34.526Z,98687.53
2023-07-24T00:38:46.490Z,98681.56
2023-07-24T00:38:58.464Z,98682.78
2023-07-24T00:39:10.482Z,98681.13
2023-07-24T00:39:22.534Z,98683.78
2023-07-24T00:39:34.490Z,98684.72
2023-07-24T00:39:46.464Z,98688.63
2023-07-24T00:39:58.500Z,98679.47
2023-07-24T00:40:10.849Z,98682.22
2023-07-24T00:40:22.880Z,98685.81
2023-07-24T00:40:34.869Z,98684.16
2023-07-24T00:40:46.841Z,98680.53
2023-07-24T00:40:59.146Z,98684.84
2023-07-24T00:41:11.161Z,98677.88
2023-07-24T00:41:23.300Z,98680.53
2023-07-24T00:41:35.289Z,98689.44
2023-07-24T00:41:47.351Z,98680.53
2023-07-24T00:41:59.349Z,98691.09
2023-07-24T00:42:11.393Z,98679.69
2023-07-24T00:42:23.663Z,98684.16
2023-07-24T00:42:35.647Z,98681.50
2023-07-24T00:42:49.362Z,98682.47
2023-07-24T00:43:01.327Z,98685.09
2023-07-24T00:43:13.271Z,98683.47
2023-07-24T00:43:25.202Z,98683.47
2023-07-24T00:43:37.195Z,98689.69
2023-07-24T00:43:49.181Z,98684.56
2023-07-24T00:44:01.260Z,98685.41
2023-07-24T00:44:13.340Z,98687.34
2023-07-24T00:44:25.406Z,98678.59
2023-07-24T00:44:38.673Z,98683.00
2023-07-24T00:44:50.682Z,98684.97
2023-07-24T00:45:04.231Z,98687.47
2023-07-24T00:45:17.623Z,98686.66
2023-07-24T00:45:29.742Z,98687.47
2023-07-24T00:45:41.902Z,98683.88
2023-07-24T00:45:55.674Z,98695.25
2023-07-24T00:46:07.781Z,98686.34
2023-07-24T00:46:19.995Z,98686.34
2023-07-24T00:46:34.199Z,98691.63
2023-07-24T00:46:46.948Z,98688.28
2023-07-24T00:46:59.244Z,98685.94
2023-07-24T00:47:11.399Z,98684.13
2023-07-24T00:47:23.880Z,98681.75
2023-07-24T00:47:35.956Z,98688.84
2023-07-24T00:47:48.182Z,98687.19
2023-07-24T00:48:01.453Z,98687.88
2023-07-24T00:48:13.725Z,98679.13
2023-07-24T00:48:25.717Z,98687.88
2023-07-24T00:48:39.037Z,98687.03
2023-07-24T00:48:51.756Z,98691.22
2023-07-24T00:49:05.655Z,98684.97
2023-07-24T00:49:18.529Z,98683.31
2023-07-24T00:49:30.636Z,98681.63
2023-07-24T00:49:42.798Z,98676.63
2023-07-24T00:49:56.110Z,98683.56
2023-07-24T00:50:09.589Z,98685.09
2023-07-24T00:50:22.448Z,98679.97
2023-07-24T00:50:34.904Z,98686.91
2023-07-24T00:50:47.058Z,98683.31
2023-07-24T00:50:59.141Z,98679.69
2023-07-24T00:51:11.477Z,98681.38
2023-07-24T00:51:23.616Z,98688.28
2023-07-24T00:51:35.923Z,98677.75
2023-07-24T00:51:48.194Z,98684.41
2023-07-24T00:52:00.302Z,98678.44
2023-07-24T00:52:13.409Z,98679.41
2023-07-24T00:52:26.108Z,98682.19
2023-07-24T00:52:38.597Z,98679.69
2023-07-24T00:52:50.588Z,98678.72
2023-07-24T00:53:02.896Z,98681.38
2023-07-24T00:53:17.596Z,98674.16
2023-07-24T00:53:29.666Z,98679.41
2023-07-24T00:53:41.718Z,98682.88
2023-07-24T00:53:55.152Z,98678.31
2023-07-24T00:54:08.207Z,98684.69
2023-07-24T00:54:22.802Z,98680.13
2023-07-24T00:54:35.518Z,98677.47
2023-07-24T00:54:47.805Z,98679.41
2023-07-24T00:55:00.491Z,98680.00
2023-07-24T00:55:14.299Z,98677.47
2023-07-24T00:55:26.717Z,98685.28
2023-07-24T00:55:39.960Z,98680.81
2023-07-24T00:55:52.028Z,98683.47
2023-07-24T00:56:04.314Z,98688.03
2023-07-24T00:56:16.528Z,98673.16
2023-07-24T00:56:30.052Z,98682.75
2023-07-24T00:56:42.197Z,98678.44
2023-07-24T00:56:54.743Z,98673.16
2023-07-24T00:57:07.156Z,98680.00
2023-07-24T00:57:19.228Z,98670.38
2023-07-24T00:57:31.554Z,98679.13
2023-07-24T00:57:44.619Z,98674.16
2023-07-24T00:57:59.071Z,98680.50
2023-07-24T00:58:12.423Z,98678.72
2023-07-24T00:58:24.984Z,98672.59
2023-07-24T00:58:38.556Z,98676.91
2023-07-24T00:58:50.693Z,98672.47
2023-07-24T00:59:02.822Z,98670.50
2023-07-24T00:59:16.054Z,98676.66
2023-07-24T00:59:28.292Z,98671.22
2023-07-24T00:59:43.046Z,98668.56
2023-07-24T00:59:55.592Z,98673.84
2023-07-24T01:00:08.476Z,98667.75
2023-07-24T01:00:20.704Z,98679.13
2023-07-24T01:00:33.320Z,98675.78
2023-07-24T01:00:45.694Z,98666.91
2023-07-24T01:00:57.947Z,98666.91
2023-07-24T01:01:11.982Z,98677.16
2023-07-24T01:01:25.018Z,98674.41
2023-07-24T01:01:38.799Z,98669.13
2023-07-24T01:01:51.193Z,98663.84
2023-07-24T01:02:03.437Z,98675.22
2023-07-24T01:02:15.500Z,98669.13
2023-07-24T01:02:28.465Z,98667.47
2023-07-24T01:02:40.533Z,98668.28
2023-07-24T01:02:52.870Z,98679.69
2023-07-24T01:03:05.202Z,98660.25
2023-07-24T01:03:17.368Z,98666.34
2023-07-24T01:03:35.946Z,98670.81
2023-07-24T01:03:48.048Z,98667.47
2023-07-24T01:04:00.206Z,98668.28
2023-07-24T01:04:12.213Z,98665.78
2023-07-24T01:04:24.342Z,98663.84
2023-07-24T01:04:36.403Z,98665.41
2023-07-24T01:04:48.631Z,98665.22
2023-07-24T01:05:00.766Z,98666.09
2023-07-24T01:05:16.027Z,98665.22
2023-07-24T01:05:28.442Z,98661.91
2023-07-24T01:05:41.456Z,98659.56
2023-07-24T01:05:55.812Z,98664.97
2023-07-24T01:06:07.789Z,98663.28
2023-07-24T01:06:19.983Z,98661.75
2023-07-24T01:06:32.419Z,98658.84
2023-07-24T01:06:44.901Z,98658.84
2023-07-24T01:06:56.954Z,98654.38
2023-07-24T01:07:09.738Z,98660.50
2023-07-24T01:07:21.772Z,98652.72
2023-07-24T01:07:33.869Z,98652.72
2023-07-24T01:07:45.935Z,98657.16
2023-07-24T01:07:58.392Z,98649.66
2023-07-24T01:08:10.396Z,98649.94
2023-07-24T01:08:22.395Z,98651.72
2023-07-24T01:08:34.581Z,98649.94
2023-07-24T01:08:46.565Z,98654.09
2023-07-24T01:08:58.541Z,98651.19
2023-07-24T01:09:11.576Z,98654.66
2023-07-24T01:09:23.656Z,98654.38
2023-07-24T01:09:35.618Z,98649.09
2023-07-24T01:09:48.507Z,98649.41
2023-07-24T01:10:00.708Z,98644.94
2023-07-24T01:10:12.750Z,98648.41
2023-07-24T01:10:24.956Z,98654.38
2023-07-24T01:10:36.938Z,98649.94
2023-07-24T01:10:48.928Z,98650.22
2023-07-24T01:11:09.040Z,98651.88
2023-07-24T01:11:48.594Z,98646.59
2023-07-24T01:12:09.997Z,98642.44
2023-07-24T01:12:36.408Z,98654.66
2023-07-24T01:12:48.320Z,98647.16
2023-07-24T01:13:15.237Z,98647.28
2023-07-24T01:13:33.103Z,98646.06
2023-07-24T01:13:57.388Z,98641.88
2023-07-24T01:14:27.934Z,98645.50
2023-07-24T01:15:38.816Z,98639.63
2023-07-24T01:16:15.464Z,98643.69
2023-07-24T01:16:34.319Z,98641.03
2023-07-24T01:16:48.615Z,98649.09
2023-07-24T01:17:02.157Z,98637.69
2023-07-24T01:17:21.577Z,98639.38
2023-07-24T01:17:40.118Z,98637.97
2023-07-24T01:18:00.747Z,98642.44
2023-07-24T01:18:14.737Z,98637.97
2023-07-24T01:18:29.182Z,98640.78
2023-07-24T01:18:43.967Z,98635.50
2023-07-24T01:18:58.002Z,98636.91
2023-07-24T01:19:40.761Z,98633.81
2023-07-24T01:19:59.228Z,98633.41
2023-07-24T01:20:13.959Z,98630.59
2023-07-24T01:20:29.779Z,98634.63
2023-07-24T01:20:48.365Z,98641.59
2023-07-24T01:21:01.931Z,98636.19
2023-07-24T01:21:17.609Z,98629.09
2023-07-24T01:21:39.673Z,98628.25
2023-07-24T01:22:04.535Z,98628.81
2023-07-24T01:22:28.436Z,98628.53
2023-07-24T01:22:46.089Z,98631.19
2023-07-24T01:23:06.880Z,98634.50
2023-07-24T01:23:34.380Z,98626.88
2023-07-24T01:23:47.197Z,98625.19
2023-07-24T01:24:15.807Z,98626.19
2023-07-24T01:24:57.195Z,98622.97
2023-07-24T01:25:15.069Z,98618.53
2023-07-24T01:25:37.870Z,98614.38
2023-07-24T01:26:00.787Z,98615.75
2023-07-24T01:26:13.166Z,98613.81
2023-07-24T01:26:26.456Z,98614.06
2023-07-24T01:26:38.980Z,98617.81
2023-07-24T01:26:51.560Z,98612.53
2023-07-24T01:27:03.995Z,98616.00
2023-07-24T01:27:25.036Z,98618.81
2023-07-24T01:27:37.017Z,98619.63
2023-07-24T01:27:49.018Z,98617.69
2023-07-24T01:28:01.020Z,98612.41
2023-07-24T01:28:12.982Z,98612.41
2023-07-24T01:28:28.219Z,98611.28
2023-07-24T01:28:40.857Z,98617.13
2023-07-24T01:28:53.024Z,98616.56
2023-07-24T01:29:04.961Z,98615.47
2023-07-24T01:29:16.951Z,98617.13
2023-07-24T01:29:29.048Z,98620.47
2023-07-24T01:29:41.025Z,98615.47
2023-07-24T01:29:53.095Z,98618.78
2023-07-24T01:30:05.581Z,98612.44
2023-07-24T01:30:19.608Z,98615.06
2023-07-24T01:30:31.660Z,98618.53
2023-07-24T01:30:43.678Z,98614.94
2023-07-24T01:30:56.485Z,98620.22
2023-07-24T01:31:08.524Z,98610.75
2023-07-24T01:31:20.522Z,98615.91
2023-07-24T01:31:32.510Z,98614.94
2023-07-24T01:31:44.518Z,98614.09
2023-07-24T01:31:56.952Z,98612.56
2023-07-24T01:32:09.211Z,98617.13
2023-07-24T01:32:21.760Z,98618.78
2023-07-24T01:32:33.908Z,98610.19
2023-07-24T01:32:46.411Z,98617.41
2023-07-24T01:32:58.569Z,98615.47
2023-07-24T01:33:10.714Z,98611.16
2023-07-24T01:33:23.444Z,98621.84
2023-07-24T01:33:36.626Z,98611.28
2023-07-24T01:33:49.146Z,98617.13
2023-07-24T01:34:01.157Z,98616.84
2023-07-24T01:34:13.346Z,98616.84
2023-07-24T01:34:25.465Z,98616.84
2023-07-24T01:34:37.418Z,98616.84
2023-07-24T01:34:50.159Z,98617.72
2023-07-24T01:35:02.182Z,98616.16
2023-07-24T01:35:14.388Z,98615.47
2023-07-24T01:35:28.121Z,98619.09
2023-07-24T01:35:40.484Z,98608.53
2023-07-24T01:35:56.498Z,98611.03
2023-07-24T01:36:08.853Z,98619.66
2023-07-24T01:36:21.000Z,98608.25
2023-07-24T01:36:33.217Z,98614.38
2023-07-24T01:36:45.475Z,98612.44
2023-07-24T01:36:57.815Z,98615.19
2023-07-24T01:37:11.967Z,98610.75
2023-07-24T01:37:26.603Z,98611.56
2023-07-24T01:37:41.380Z,98611.56
2023-07-24T01:37:53.578Z,98609.66
2023-07-24T01:38:05.851Z,98609.66
2023-07-24T01:38:18.471Z,98608.53
2023-07-24T01:38:32.775Z,98617.41
2023-07-24T01:38:45.048Z,98610.34
2023-07-24T01:38:57.693Z,98613.00
2023-07-24T01:39:11.041Z,98610.19
2023-07-24T01:39:23.380Z,98610.06
2023-07-24T01:39:36.220Z,98607.44
2023-07-24T01:39:49.353Z,98611.88
2023-07-24T01:40:01.790Z,98606.72
2023-07-24T01:40:14.626Z,98609.38
2023-07-24T01:40:26.676Z,98604.22
2023-07-24T01:40:40.957Z,98613.94
2023-07-24T01:40:57.196Z,98610.19
2023-07-24T01:41:09.484Z,98609.38
2023-07-24T01:41:21.692Z,98609.66
2023-07-24T01:41:33.745Z,98612.31
2023-07-24T01:41:45.909Z,98619.09
2023-07-24T01:41:58.320Z,98604.38
2023-07-24T01:42:10.673Z,98613.94
2023-07-24T01:42:22.621Z,98611.44
2023-07-24T01:42:35.413Z,98608.53
2023-07-24T01:42:47.490Z,98609.34
2023-07-24T01:43:00.668Z,98608.78
2023-07-24T01:43:13.015Z,98605.59
2023-07-24T01:43:28.093Z,98613.50
2023-07-24T01:43:40.091Z,98610.72
2023-07-24T01:43:52.226Z,98614.91
2023-07-24T01:44:04.307Z,98612.13
2023-07-24T01:44:16.321Z,98610.72
2023-07-24T01:44:28.341Z,98614.91
2023-07-24T01:44:40.346Z,98615.03
2023-07-24T01:44:56.262Z,98610.84
2023-07-24T01:45:09.321Z,98610.16
2023-07-24T01:45:21.391Z,98618.78
2023-07-24T01:45:33.480Z,98613.50
2023-07-24T01:45:45.572Z,98613.75
2023-07-24T01:45:57.683Z,98609.59
2023-07-24T01:46:09.982Z,98615.97
2023-07-24T01:46:22.058Z,98620.81
2023-07-24T01:46:34.178Z,98618.88
2023-07-24T01:46:46.538Z,98625.38
2023-07-24T01:46:58.562Z,98623.81
2023-07-24T01:47:10.563Z,98616.41
2023-07-24T01:47:23.270Z,98622.22
2023-07-24T01:47:35.499Z,98623.00
2023-07-24T01:47:47.526Z,98618.25
2023-07-24T01:48:00.994Z,98624.88
2023-07-24T01:48:13.051Z,98626.25
2023-07-24T01:48:25.005Z,98631.34
2023-07-24T01:48:36.931Z,98619.13
2023-07-24T01:48:49.360Z,98624.84
2023-07-24T01:49:01.332Z,98622.63
2023-07-24T01:49:13.296Z,98625.72
2023-07-24T01:49:25.289Z,98621.88
2023-07-24T01:49:37.453Z,98626.59
2023-07-24T01:49:49.777Z,98625.50
2023-07-24T01:50:01.986Z,98624.41
2023-07-24T01:50:14.160Z,98625.81
2023-07-24T01:50:26.330Z,98631.78
2023-07-24T01:50:38.380Z,98624.72
2023-07-24T01:50:51.152Z,98625.44
2023-07-24T01:51:03.293Z,98623.88
2023-07-24T01:51:15.372Z,98623.88
2023-07-24T01:51:27.314Z,98628.19
2023-07-24T01:51:39.236Z,98618.47
2023-07-24T01:51:51.184Z,98625.28
2023-07-24T01:52:03.374Z,98630.28
2023-07-24T01:52:15.493Z,98630.16
2023-07-24T01:52:27.683Z,98631.72
2023-07-24T01:52:39.622Z,98628.97
2023-07-24T01:52:51.784Z,98631.47
2023-07-24T01:53:03.868Z,98633.13
2023-07-24T01:53:15.911Z,98632.69
2023-07-24T01:53:27.890Z,98631.19
2023-07-24T01:53:39.974Z,98639.16
2023-07-24T01:53:51.928Z,98632.06
2023-07-24T01:54:03.922Z,98626.59
2023-07-24T01:54:15.874Z,98630.66
2023-07-24T01:54:27.812Z,98633.81
2023-07-24T01:54:39.993Z,98637.03
2023-07-24T01:54:51.966Z,98632.34
2023-07-24T01:55:04.239Z,98635.56
2023-07-24T01:55:16.317Z,98635.28
2023-07-24T01:55:28.287Z,98632.53
2023-07-24T01:55:40.287Z,98629.06
2023-07-24T01:55:52.258Z,98626.28
2023-07-24T01:56:04.440Z,98634.75
2023-07-24T01:56:16.446Z,98628.53
2023-07-24T01:56:28.637Z,98631.84
2023-07-24T01:56:41.062Z,98634.81
2023-07-24T01:56:53.429Z,98625.81
2023-07-24T01:57:06.003Z,98635.38
2023-07-24T01:57:18.038Z,98627.31
2023-07-24T01:57:29.944Z,98630.38
2023-07-24T01:57:41.897Z,98630.66
2023-07-24T01:57:53.865Z,98634.22
2023-07-24T01:58:05.899Z,98627.53
2023-07-24T01:58:17.920Z,98635.31
2023-07-24T01:58:29.962Z,98633.91
2023-07-24T01:58:41.940Z,98631.81
2023-07-24T01:58:53.891Z,98634.09
2023-07-24T01:59:06.352Z,98628.59
2023-07-24T01:59:18.382Z,98633.56
2023-07-24T01:59:30.350Z,98632.50
2023-07-24T01:59:42.396Z,98628.78
2023-07-24T01:59:54.405Z,98636.41
2023-07-24T02:00:07.089Z,98626.59
2023-07-24T02:00:19.158Z,98631.59
2023-07-24T02:00:31.359Z,98629.66
2023-07-24T02:00:43.314Z,98626.78
2023-07-24T02:00:58.029Z,98627.47
2023-07-24T02:01:10.044Z,98636.81
2023-07-24T02:01:22.091Z,98636.53
2023-07-24T02:01:34.136Z,98632.66
2023-07-24T02:01:46.166Z,98636.81
2023-07-24T02:01:58.171Z,98629.78
2023-07-24T02:02:10.245Z,98641.03
2023-07-24T02:02:22.286Z,98633.13
2023-07-24T02:02:34.353Z,98631.88
2023-07-24T02:02:46.490Z,98633.53
2023-07-24T02:02:58.663Z,98626.59
2023-07-24T02:03:10.846Z,98626.34
2023-07-24T02:03:23.014Z,98631.22
2023-07-24T02:03:35.310Z,98636.34
2023-07-24T02:03:47.412Z,98633.16
2023-07-24T02:03:59.431Z,98629.13
2023-07-24T02:04:11.376Z,98628.53
2023-07-24T02:04:23.678Z,98634.06
2023-07-24T02:04:35.686Z,98629.38
2023-07-24T02:04:47.816Z,98632.72
2023-07-24T02:04:59.741Z,98630.78
2023-07-24T02:05:11.820Z,98629.94
2023-07-24T02:05:23.836Z,98630.66
2023-07-24T02:05:36.567Z,98629.53
2023-07-24T02:05:52.324Z,98636.63
2023-07-24T02:06:04.348Z,98628.72
2023-07-24T02:06:16.268Z,98633.00
2023-07-24T02:06:28.505Z,98634.94
2023-07-24T02:06:40.867Z,98633.88
2023-07-24T02:06:52.865Z,98633.00
2023-07-24T02:07:05.302Z,98634.41
2023-07-24T02:07:17.294Z,98634.06
2023-07-24T02:07:29.291Z,98634.59
2023-07-24T02:07:41.260Z,98633.28
2023-07-24T02:07:53.245Z,98640.84
2023-07-24T02:08:05.446Z,98629.69
2023-07-24T02:08:17.386Z,98636.09
2023-07-24T02:08:29.350Z,98633.91
2023-07-24T02:08:42.036Z,98628.78
2023-07-24T02:08:54.107Z,98637.94
2023-07-24T02:09:06.087Z,98640.06
2023-07-24T02:09:21.475Z,98631.94
2023-07-24T02:09:33.469Z,98631.66
2023-07-24T02:09:46.088Z,98632.22
2023-07-24T02:09:58.303Z,98635.56
2023-07-24T02:10:10.495Z,98633.63
2023-07-24T02:10:22.415Z,98628.13
2023-07-24T02:10:38.776Z,98633.97
2023-07-24T02:10:53.359Z,98640.66
2023-07-24T02:11:05.382Z,98626.50
2023-07-24T02:11:17.320Z,98627.91
2023-07-24T02:11:29.369Z,98627.66
2023-07-24T02:11:41.400Z,98632.66
2023-07-24T02:11:53.406Z,98630.72
2023-07-24T02:12:06.006Z,98626.03
2023-07-24T02:12:17.964Z,98630.91
2023-07-24T02:12:29.914Z,98634.41
2023-07-24T02:12:42.208Z,98624.56
2023-07-24T02:12:54.204Z,98627.03
2023-07-24T02:13:08.398Z,98628.00
2023-07-24T02:13:20.377Z,98630.53
2023-07-24T02:13:32.343Z,98629.41
2023-07-24T02:13:47.964Z,98626.50
2023-07-24T02:14:00.881Z,98627.19
2023-07-24T02:14:14.786Z,98628.19
2023-07-24T02:14:27.791Z,98627.91
2023-07-24T02:14:39.765Z,98627.19
2023-07-24T02:14:52.736Z,98628.88
2023-07-24T02:15:05.106Z,98628.06
2023-07-24T02:15:17.212Z,98627.91
2023-07-24T02:15:29.164Z,98632.22
2023-07-24T02:15:41.617Z,98629.31
2023-07-24T02:15:54.960Z,98626.53
2023-07-24T02:16:07.100Z,98628.13
2023-07-24T02:16:19.128Z,98624.78
2023-07-24T02:16:31.286Z,98622.00
2023-07-24T02:16:43.492Z,98619.50
2023-07-24T02:16:55.522Z,98627.41
2023-07-24T02:17:07.547Z,98622.00
2023-07-24T02:17:19.622Z,98621.19
2023-07-24T02:17:31.739Z,98624.78
2023-07-24T02:17:43.808Z,98621.19
2023-07-24T02:17:55.868Z,98620.06
2023-07-24T02:18:07.854Z,98628.69
2023-07-24T02:18:19.853Z,98631.19
2023-07-24T02:18:31.870Z,98621.63
2023-07-24T02:18:44.732Z,98625.91
2023-07-24T02:18:56.729Z,98621.47
2023-07-24T02:19:08.702Z,98620.78
2023-07-24T02:19:20.675Z,98625.91
2023-07-24T02:19:32.686Z,98617.88
2023-07-24T02:19:45.193Z,98621.22
2023-07-24T02:19:57.135Z,98623.16
2023-07-24T02:20:09.417Z,98617.88
2023-07-24T02:20:21.364Z,98615.13
2023-07-24T02:20:33.305Z,98611.50
2023-07-24T02:20:52.271Z,98616.66
2023-07-24T02:21:04.411Z,98607.63
2023-07-24T02:21:16.381Z,98612.78
2023-07-24T02:21:28.410Z,98611.78
2023-07-24T02:21:41.852Z,98611.66
2023-07-24T02:21:53.898Z,98617.91
2023-07-24T02:22:05.846Z,98611.66
2023-07-24T02:22:17.975Z,98609.84
2023-07-24T02:22:29.916Z,98613.19
2023-07-24T02:22:41.888Z,98615.28
2023-07-24T02:22:53.830Z,98614.59
2023-07-24T02:23:05.802Z,98615.53
2023-07-24T02:23:17.812Z,98608.44
2023-07-24T02:23:29.830Z,98615.81
2023-07-24T02:23:41.757Z,98615.13
2023-07-24T02:23:53.686Z,98614.97
2023-07-24T02:24:05.754Z,98611.50
2023-07-24T02:24:17.716Z,98614.97
2023-07-24T02:24:29.681Z,98611.50
2023-07-24T02:24:41.754Z,98613.31
2023-07-24T02:24:53.802Z,98607.59
2023-07-24T02:25:06.265Z,98609.28
2023-07-24T02:25:18.305Z,98608.44
2023-07-24T02:25:30.301Z,98605.66
2023-07-24T02:25:42.413Z,98612.59
2023-07-24T02:25:54.481Z,98603.88
2023-07-24T02:26:06.500Z,98606.75
2023-07-24T02:26:18.515Z,98604.81
2023-07-24T02:26:30.797Z,98608.16
2023-07-24T02:26:42.935Z,98613.97
2023-07-24T02:26:54.957Z,98613.97
2023-07-24T02:27:06.968Z,98610.38
2023-07-24T02:27:29.671Z,98605.34
2023-07-24T02:27:41.641Z,98606.31
2023-07-24T02:27:53.607Z,98603.69
2023-07-24T02:28:05.609Z,98602.72
2023-07-24T02:28:17.528Z,98591.94
2023-07-24T02:28:29.462Z,98604.81
2023-07-24T02:28:41.444Z,98602.19
2023-07-24T02:28:54.885Z,98604.94
2023-07-24T02:29:06.867Z,98605.09
2023-07-24T02:29:18.880Z,98598.41
2023-07-24T02:29:30.869Z,98607.25
2023-07-24T02:29:42.864Z,98604.63
2023-07-24T02:29:55.494Z,98603.81
2023-07-24T02:30:07.920Z,98593.97
2023-07-24T02:30:19.871Z,98603.94
2023-07-24T02:30:31.844Z,98600.31
2023-07-24T02:30:43.928Z,98605.59
2023-07-24T02:30:57.646Z,98605.88
2023-07-24T02:31:09.686Z,98596.72
2023-07-24T02:31:21.734Z,98607.25
2023-07-24T02:31:34.556Z,98608.09
2023-07-24T02:31:46.543Z,98612.53
2023-07-24T02:31:59.461Z,98606.97
2023-07-24T02:32:11.430Z,98604.47
2023-07-24T02:32:23.465Z,98609.72